Time;durP1;ratioP1;P1;durP2;ratioP2;P2;SDS_P1;SDS_P2;PMS_P1;PMS_P2;Temp;Humidity;BMP_temperature;BMP_pressure;BME280_temperature;BME280_humidity;BME280_pressure;Samples;Min_cycle;Max_cycle;Signal;HPM_P1;HPM_P2
2023/11/04 00:00:47;;;;;;;0.80;0.60;;;;;;;5.52;100.00;96855.04;429967;1273;141230;-66
2023/11/04 00:11:12;;;;;;;0.70;0.50;;;;;;;5.37;100.00;96888.96;429956;1271;139156;-65
2023/11/04 00:21:18;;;;;;;0.90;0.80;;;;;;;5.26;100.00;96918.90;429762;1270;139631;-66
2023/11/04 00:31:24;;;;;;;0.70;0.40;;;;;;;5.14;100.00;96947.30;429767;1270;140384;-65
2023/11/04 00:41:32;;;;;;;3.20;0.80;;;;;;;5.03;100.00;96960.33;430176;1276;140192;-65
2023/11/04 00:51:38;;;;;;;2.20;0.60;;;;;;;4.96;100.00;96966.11;430013;1274;139447;-66
2023/11/04 01:01:44;;;;;;;1.50;0.90;;;;;;;4.93;100.00;96964.25;430176;1270;141128;-65
2023/11/04 01:11:50;;;;;;;1.00;0.90;;;;;;;4.95;100.00;96973.11;429922;1274;140473;-67
2023/11/04 01:21:56;;;;;;;1.20;1.10;;;;;;;5.00;100.00;96975.33;429650;1271;140165;-68
2023/11/04 01:32:02;;;;;;;1.50;1.40;;;;;;;5.03;100.00;96983.36;429403;1270;141392;-66
2023/11/04 01:42:09;;;;;;;1.40;1.30;;;;;;;5.07;100.00;97007.68;429484;1270;139566;-66
2023/11/04 01:52:15;;;;;;;1.50;1.40;;;;;;;5.08;100.00;97020.08;430110;1270;138995;-65
2023/11/04 02:02:22;;;;;;;1.50;1.40;;;;;;;5.12;100.00;97019.94;430169;1274;140427;-66
2023/11/04 02:12:29;;;;;;;2.30;2.00;;;;;;;5.12;100.00;97025.86;430057;1274;139194;-67
2023/11/04 02:22:35;;;;;;;1.50;1.40;;;;;;;5.10;100.00;97036.75;429750;1271;140769;-66
2023/11/04 02:32:41;;;;;;;1.10;0.80;;;;;;;5.05;100.00;97055.14;429720;1270;140873;-66
2023/11/04 02:42:47;;;;;;;1.60;1.30;;;;;;;5.10;100.00;97071.41;429898;1270;138906;-67
2023/11/04 02:52:52;;;;;;;2.10;2.00;;;;;;;5.18;100.00;97084.64;429719;1275;139881;-66
2023/11/04 03:02:58;;;;;;;1.70;1.60;;;;;;;5.27;100.00;97093.47;429678;1273;139154;-65
2023/11/04 03:13:04;;;;;;;2.80;2.40;;;;;;;5.35;100.00;97101.14;429850;1270;139080;-65
2023/11/04 03:23:10;;;;;;;3.50;1.30;;;;;;;5.41;100.00;97125.42;429635;1270;139372;-66
2023/11/04 03:33:17;;;;;;;1.70;1.60;;;;;;;5.49;100.00;97146.35;429504;1273;140136;-65
2023/11/04 03:43:22;;;;;;;3.10;1.80;;;;;;;5.54;100.00;97166.55;430710;1270;139331;-66
2023/11/04 03:53:28;;;;;;;2.50;1.90;;;;;;;5.59;100.00;97173.80;429589;1275;139741;-66
2023/11/04 04:03:34;;;;;;;1.50;1.30;;;;;;;5.62;100.00;97183.25;429638;1270;139248;-66
2023/11/04 04:13:40;;;;;;;2.00;1.80;;;;;;;5.65;100.00;97194.12;429718;1270;139481;-66
2023/11/04 04:23:46;;;;;;;3.30;1.60;;;;;;;5.70;100.00;97209.88;430053;1271;139964;-66
2023/11/04 04:33:52;;;;;;;1.90;1.50;;;;;;;5.74;100.00;97236.28;430271;1270;139238;-66
2023/11/04 04:43:59;;;;;;;2.10;1.90;;;;;;;5.78;100.00;97245.85;429632;1275;141437;-66
2023/11/04 04:54:05;;;;;;;1.40;1.30;;;;;;;5.81;100.00;97260.23;429669;1270;139702;-66
2023/11/04 05:04:13;;;;;;;1.80;1.70;;;;;;;5.85;100.00;97278.23;430563;1272;140697;-67
2023/11/04 05:14:19;;;;;;;1.90;1.80;;;;;;;5.90;100.00;97294.89;430496;1270;140120;-66
2023/11/04 05:24:26;;;;;;;2.50;2.20;;;;;;;5.92;100.00;97312.29;430009;1270;140812;-68
2023/11/04 05:34:32;;;;;;;2.90;2.20;;;;;;;5.93;100.00;97324.33;429950;1270;140418;-66
2023/11/04 05:44:38;;;;;;;2.00;1.70;;;;;;;5.92;100.00;97337.08;430423;1270;139310;-67
2023/11/04 05:54:44;;;;;;;3.70;2.20;;;;;;;5.90;100.00;97355.30;429859;1273;140207;-67
2023/11/04 06:04:50;;;;;;;1.50;1.40;;;;;;;5.86;100.00;97371.08;429856;1270;139255;-66
2023/11/04 06:14:57;;;;;;;1.60;1.50;;;;;;;5.84;100.00;97377.52;429985;1273;139762;-66
2023/11/04 06:25:03;;;;;;;1.80;1.60;;;;;;;5.84;100.00;97392.23;429888;1274;140683;-67
2023/11/04 06:35:14;;;;;;;1.20;1.10;;;;;;;5.89;100.00;97407.34;430823;1270;140125;-67
2023/11/04 06:45:20;;;;;;;1.90;1.50;;;;;;;5.95;100.00;97415.17;430488;1270;139283;-66
2023/11/04 06:55:25;;;;;;;1.10;1.00;;;;;;;6.04;100.00;97427.34;430232;1271;220822;-67
2023/11/04 07:05:34;;;;;;;2.30;1.50;;;;;;;6.15;100.00;97437.98;430454;1274;140071;-67
2023/11/04 07:15:41;;;;;;;2.00;1.70;;;;;;;6.31;100.00;97448.46;430279;1270;140181;-67
2023/11/04 07:25:47;;;;;;;2.30;2.10;;;;;;;6.49;100.00;97459.72;430567;1273;139551;-68
2023/11/04 07:35:53;;;;;;;3.60;1.60;;;;;;;6.85;100.00;97458.69;430457;1273;139292;-66
2023/11/04 07:45:59;;;;;;;4.50;2.80;;;;;;;8.97;100.00;97450.27;430749;1270;139933;-67
2023/11/04 07:56:07;;;;;;;1.50;1.10;;;;;;;14.54;100.00;97435.39;430772;1275;142522;-67
2023/11/04 08:06:13;;;;;;;1.20;1.00;;;;;;;18.31;99.61;97434.85;431744;1270;139248;-68
2023/11/04 08:16:19;;;;;;;1.40;1.30;;;;;;;16.80;93.73;97446.95;431269;1270;138800;-68
2023/11/04 08:26:26;;;;;;;2.00;1.40;;;;;;;15.30;92.68;97450.31;431089;1270;138634;-67
2023/11/04 08:36:31;;;;;;;1.50;1.40;;;;;;;16.95;96.23;97444.58;430418;1274;138534;-68
2023/11/04 08:46:37;;;;;;;2.10;1.20;;;;;;;21.83;91.03;97438.48;430515;1273;138452;-68
2023/11/04 08:56:48;;;;;;;2.00;1.70;;;;;;;23.49;80.30;97440.39;430699;1274;139014;-69
2023/11/04 09:06:54;;;;;;;3.20;3.00;;;;;;;24.96;78.12;97440.59;430666;1275;138755;-69
2023/11/04 09:17:00;;;;;;;3.50;1.50;;;;;;;26.71;74.58;97447.48;431047;1270;138610;-67
2023/11/04 09:27:07;;;;;;;4.10;1.50;;;;;;;25.01;68.60;97460.98;430468;1275;139467;-69
2023/11/04 09:37:13;;;;;;;2.50;1.70;;;;;;;20.56;66.48;97460.36;430321;1273;140163;-68
2023/11/04 09:47:19;;;;;;;2.30;1.60;;;;;;;17.75;68.85;97462.35;430663;1273;138649;-64
2023/11/04 09:57:26;;;;;;;7.20;2.60;;;;;;;15.71;70.54;97454.45;430291;1270;139925;-63
2023/11/04 10:07:32;;;;;;;3.70;1.70;;;;;;;14.31;72.11;97466.00;431280;1276;138559;-64
2023/11/04 10:17:38;;;;;;;4.10;1.50;;;;;;;13.15;73.94;97480.74;430294;1270;139725;-65
2023/11/04 10:27:44;;;;;;;6.90;2.20;;;;;;;12.47;75.40;97470.42;430121;1271;139545;-64
2023/11/04 10:37:52;;;;;;;7.40;1.90;;;;;;;12.15;76.74;97468.36;430096;1274;138624;-66
2023/11/04 10:48:03;;;;;;;5.00;2.30;;;;;;;12.12;77.91;97458.85;430596;1274;138502;-66
2023/11/04 10:58:18;;;;;;;3.40;1.70;;;;;;;11.76;78.16;97455.48;430359;1271;138857;-65
2023/11/04 11:08:25;;;;;;;6.00;2.80;;;;;;;11.52;79.62;97450.69;430760;1274;139585;-66
2023/11/04 11:18:31;;;;;;;4.00;2.10;;;;;;;11.42;80.58;97444.45;430285;1274;140234;-65
2023/11/04 11:28:39;;;;;;;3.00;2.00;;;;;;;11.55;81.38;97437.05;430319;1275;139517;-66
2023/11/04 11:38:45;;;;;;;5.40;2.20;;;;;;;11.78;81.08;97426.48;430608;1274;139456;-68
2023/11/04 11:48:51;;;;;;;6.20;3.30;;;;;;;11.63;80.99;97441.05;430027;1273;138658;-68
2023/11/04 11:59:01;;;;;;;8.10;4.80;;;;;;;11.71;81.24;97445.63;430099;1276;138795;-68
2023/11/04 12:09:10;;;;;;;5.40;3.00;;;;;;;11.59;80.70;97435.47;430124;1273;138693;-70
2023/11/04 12:19:18;;;;;;;4.20;2.30;;;;;;;11.65;81.32;97418.19;430774;1273;139228;-68
2023/11/04 12:29:28;;;;;;;3.90;2.30;;;;;;;11.67;81.11;97402.93;430253;1276;138618;-69
2023/11/04 12:39:34;;;;;;;3.80;1.50;;;;;;;11.54;81.29;97397.54;430258;1274;139339;-69
2023/11/04 12:49:41;;;;;;;6.30;1.40;;;;;;;11.45;80.68;97389.71;430115;1276;138531;-69
2023/11/04 12:59:46;;;;;;;4.40;2.00;;;;;;;10.93;80.50;97386.55;430185;1271;138903;-69
2023/11/04 13:09:53;;;;;;;2.70;1.90;;;;;;;10.52;81.52;97378.92;430773;1275;139732;-70
2023/11/04 13:19:59;;;;;;;4.40;2.10;;;;;;;10.30;82.04;97369.10;430362;1276;139063;-68
2023/11/04 13:30:07;;;;;;;5.40;2.40;;;;;;;10.15;82.55;97367.80;430334;1270;139205;-68
2023/11/04 13:40:13;;;;;;;4.10;2.70;;;;;;;10.03;82.60;97359.14;431171;1276;140810;-68
2023/11/04 13:50:22;;;;;;;4.80;3.30;;;;;;;9.93;82.60;97348.27;430943;1276;140931;-68
2023/11/04 14:00:28;;;;;;;5.00;2.90;;;;;;;9.74;83.02;97349.03;431102;1273;139994;-68
2023/11/04 14:10:34;;;;;;;4.60;2.40;;;;;;;9.57;83.69;97351.83;430160;1276;139801;-69
2023/11/04 14:20:40;;;;;;;3.90;2.90;;;;;;;9.43;84.19;97356.31;430179;1276;139232;-72
2023/11/04 14:30:46;;;;;;;6.50;3.70;;;;;;;9.27;84.71;97350.12;430521;1276;138997;-72
2023/11/04 14:40:53;;;;;;;6.70;4.40;;;;;;;9.09;85.32;97337.50;432622;1276;139236;-72
2023/11/04 14:50:59;;;;;;;5.10;3.30;;;;;;;8.89;85.62;97329.52;430570;1275;139050;-72
2023/11/04 15:01:05;;;;;;;7.50;4.50;;;;;;;8.64;86.26;97331.43;430296;1276;139499;-72
2023/11/04 15:11:11;;;;;;;7.70;5.20;;;;;;;8.36;86.74;97343.23;430173;1276;138940;-71
2023/11/04 15:21:17;;;;;;;11.20;6.80;;;;;;;8.06;87.51;97348.83;429987;1270;139201;-72
2023/11/04 15:31:23;;;;;;;12.80;7.30;;;;;;;7.78;88.41;97333.21;430133;1275;139055;-70
2023/11/04 15:41:30;;;;;;;8.60;6.70;;;;;;;7.53;89.04;97324.20;430127;1275;139086;-72
2023/11/04 15:51:37;;;;;;;18.40;11.40;;;;;;;7.33;89.89;97331.86;430351;1276;138848;-72
2023/11/04 16:01:43;;;;;;;15.00;10.60;;;;;;;7.08;90.42;97328.62;430910;1270;139262;-72
2023/11/04 16:11:49;;;;;;;30.90;22.60;;;;;;;6.84;91.43;97318.98;430311;1270;139718;-71
2023/11/04 16:21:55;;;;;;;19.30;13.90;;;;;;;6.61;92.02;97312.25;430468;1276;139718;-73
2023/11/04 16:32:02;;;;;;;18.80;11.60;;;;;;;6.37;92.97;97303.20;430428;1275;139497;-73
2023/11/04 16:42:08;;;;;;;12.70;9.40;;;;;;;6.20;93.80;97291.24;433611;1270;139351;-72
2023/11/04 16:52:14;;;;;;;16.10;10.60;;;;;;;6.08;94.59;97277.13;430289;1275;140112;-72
2023/11/04 17:02:20;;;;;;;16.70;12.20;;;;;;;5.94;95.20;97263.50;430336;1272;139304;-72
2023/11/04 17:12:27;;;;;;;20.10;13.70;;;;;;;5.77;95.93;97247.54;430381;1273;140338;-71
2023/11/04 17:22:33;;;;;;;23.90;16.70;;;;;;;5.64;96.73;97240.90;431217;1273;140078;-72
2023/11/04 17:32:40;;;;;;;19.10;15.40;;;;;;;5.48;97.43;97231.40;430609;1270;141566;-72
2023/11/04 17:42:46;;;;;;;27.60;14.90;;;;;;;5.36;98.25;97220.41;430713;1273;139344;-72
2023/11/04 17:52:52;;;;;;;22.80;13.90;;;;;;;5.28;99.09;97201.44;431065;1270;139782;-71
2023/11/04 18:02:58;;;;;;;21.80;14.10;;;;;;;5.18;99.58;97199.63;430894;1273;139442;-72
2023/11/04 18:13:04;;;;;;;19.30;15.30;;;;;;;5.05;100.00;97189.91;430366;1273;139195;-72
2023/11/04 18:23:10;;;;;;;25.20;17.80;;;;;;;4.93;100.00;97190.15;430753;1276;139284;-73
2023/11/04 18:33:16;;;;;;;17.90;14.10;;;;;;;4.81;100.00;97184.15;431221;1274;139655;-73
2023/11/04 18:43:22;;;;;;;;;;;;;;;4.69;100.00;97170.89;431477;1273;140732;-72
2023/11/04 18:53:28;;;;;;;20.40;14.10;;;;;;;4.56;100.00;97160.64;430867;1273;167530;-71
2023/11/04 19:03:35;;;;;;;23.70;15.70;;;;;;;4.43;100.00;97149.15;431040;1274;139615;-72
2023/11/04 19:13:42;;;;;;;20.00;13.70;;;;;;;4.32;100.00;97138.00;430925;1269;139415;-73
2023/11/04 19:23:48;;;;;;;26.20;16.40;;;;;;;4.24;100.00;97122.94;430029;1270;140008;-71
2023/11/04 19:33:54;;;;;;;26.10;17.60;;;;;;;4.15;100.00;97116.50;431003;1270;139605;-71
2023/11/04 19:44:00;;;;;;;26.80;18.20;;;;;;;4.01;100.00;97117.40;430064;1270;140364;-69
2023/11/04 19:54:06;;;;;;;21.30;17.50;;;;;;;3.88;100.00;97104.66;430277;1273;139363;-71
2023/11/04 20:04:12;;;;;;;21.20;15.90;;;;;;;3.80;100.00;97081.40;429987;1273;140558;-70
2023/11/04 20:14:18;;;;;;;24.40;17.30;;;;;;;3.80;100.00;97079.52;430202;1270;139947;-70
2023/11/04 20:24:25;;;;;;;22.40;14.60;;;;;;;3.76;100.00;97089.17;430272;1273;139586;-71
2023/11/04 20:34:31;;;;;;;20.90;16.40;;;;;;;3.62;100.00;97098.00;430306;1275;140878;-71
2023/11/04 20:44:37;;;;;;;27.50;19.80;;;;;;;3.42;100.00;97067.83;429937;1270;140583;-70
2023/11/04 20:54:43;;;;;;;22.60;15.20;;;;;;;3.31;100.00;97030.10;430067;1273;139365;-71
2023/11/04 21:04:49;;;;;;;23.20;16.90;;;;;;;3.25;100.00;97013.42;429763;1270;139379;-71
2023/11/04 21:14:56;;;;;;;20.80;16.60;;;;;;;3.16;100.00;96983.47;430235;1270;139980;-71
2023/11/04 21:25:02;;;;;;;22.40;17.70;;;;;;;3.08;100.00;96971.08;430842;1275;139946;-70
2023/11/04 21:35:09;;;;;;;25.50;17.00;;;;;;;3.08;100.00;96976.46;431411;1273;140875;-71
2023/11/04 21:45:15;;;;;;;22.20;17.00;;;;;;;3.03;100.00;96994.96;430732;1273;139698;-70
2023/11/04 21:55:24;;;;;;;21.50;15.80;;;;;;;3.01;100.00;96993.77;430419;1273;139487;-71
2023/11/04 22:05:31;;;;;;;20.50;15.30;;;;;;;3.02;100.00;97011.61;430394;1270;139375;-71
2023/11/04 22:15:37;;;;;;;22.00;16.60;;;;;;;2.97;100.00;97014.60;430244;1272;139529;-70
2023/11/04 22:25:43;;;;;;;21.60;16.70;;;;;;;2.89;100.00;97006.56;430581;1274;140407;-71
2023/11/04 22:35:50;;;;;;;28.50;17.40;;;;;;;2.78;100.00;96990.77;431633;1274;140334;-71
2023/11/04 22:45:56;;;;;;;23.30;17.40;;;;;;;2.68;100.00;96970.95;431257;1276;139672;-71
2023/11/04 22:56:02;;;;;;;18.60;15.50;;;;;;;2.65;100.00;96950.11;431448;1274;142027;-71
2023/11/04 23:06:09;;;;;;;19.00;14.50;;;;;;;2.71;100.00;96926.34;431489;1270;139308;-70
2023/11/04 23:16:15;;;;;;;20.40;13.30;;;;;;;2.78;100.00;96934.30;431157;1274;140147;-71
2023/11/04 23:26:21;;;;;;;19.20;13.70;;;;;;;2.77;100.00;96927.40;430698;1271;139946;-70
2023/11/04 23:36:28;;;;;;;16.30;13.20;;;;;;;2.79;100.00;96926.79;430927;1270;141241;-71
2023/11/04 23:46:34;;;;;;;18.80;12.60;;;;;;;2.80;100.00;96911.80;430854;1270;139632;-70
2023/11/04 23:56:40;;;;;;;16.10;14.10;;;;;;;2.85;100.00;96870.86;430604;1273;139476;-70
